createdAt,value
2019-04-16T00:04:06.364Z,2.00
2019-04-16T00:09:11.486Z,1.70
2019-04-16T00:14:16.619Z,1.80
2019-04-16T00:19:20.169Z,1.70
2019-04-16T00:24:34.504Z,1.67
2019-04-16T00:29:39.644Z,1.30
2019-04-16T00:34:44.787Z,1.57
2019-04-16T00:39:48.390Z,1.95
2019-04-16T00:44:51.937Z,1.50
2019-04-16T00:49:58.792Z,1.72
2019-04-16T00:55:00.623Z,1.40
2019-04-16T01:00:05.978Z,1.52
2019-04-16T01:05:09.453Z,1.90
2019-04-16T01:10:12.993Z,1.80
2019-04-16T01:15:16.464Z,1.85
2019-04-16T01:20:19.948Z,1.33
2019-04-16T01:25:24.044Z,1.50
2019-04-16T01:30:29.221Z,1.40
2019-04-16T01:35:40.496Z,1.50
2019-04-16T01:40:47.326Z,1.47
2019-04-16T01:45:50.810Z,1.62
2019-04-16T01:50:54.354Z,1.40
2019-04-16T01:55:57.825Z,1.70
2019-04-16T02:01:01.309Z,1.40
2019-04-16T02:06:04.857Z,1.32
2019-04-16T02:11:10.657Z,1.50
2019-04-16T02:16:13.542Z,1.30
2019-04-16T02:21:17.027Z,1.42
2019-04-16T02:26:23.385Z,1.30
2019-04-16T02:31:25.669Z,1.62
2019-04-16T02:36:29.131Z,1.40
2019-04-16T02:41:32.595Z,1.27
2019-04-16T02:46:36.048Z,1.30
2019-04-16T02:51:47.231Z,1.45
2019-04-16T02:56:58.178Z,1.30
2019-04-16T03:02:22.704Z,1.42
2019-04-16T03:07:24.739Z,1.57
2019-04-16T03:12:28.213Z,1.20
2019-04-16T03:17:35.788Z,1.30
2019-04-16T03:22:39.270Z,1.40
2019-04-16T03:27:42.749Z,1.30
2019-04-16T03:32:50.209Z,1.02
2019-04-16T03:37:53.638Z,1.22
2019-04-16T03:42:59.384Z,1.35
2019-04-16T03:48:02.288Z,1.17
2019-04-16T03:53:05.746Z,1.20
2019-04-16T03:58:09.205Z,1.57
2019-04-16T04:03:12.669Z,1.10
2019-04-16T04:08:17.942Z,1.27
2019-04-16T04:13:21.677Z,1.40
2019-04-16T04:18:25.136Z,1.20
2019-04-16T04:23:29.439Z,1.13
2019-04-16T04:28:33.034Z,1.02
2019-04-16T04:33:41.626Z,1.40
2019-04-16T04:38:44.321Z,1.20
2019-04-16T04:43:47.785Z,1.52
2019-04-16T04:48:54.976Z,1.40
2019-04-16T04:53:56.429Z,1.32
2019-04-16T04:59:02.533Z,1.25
2019-04-16T05:04:22.541Z,1.40
2019-04-16T05:09:29.163Z,1.42
2019-04-16T05:14:31.181Z,1.17
2019-04-16T05:19:34.642Z,1.60
2019-04-16T05:24:38.102Z,1.30
2019-04-16T05:29:41.555Z,1.25
2019-04-16T05:34:45.012Z,1.35
2019-04-16T05:39:48.483Z,1.00
2019-04-16T05:44:51.931Z,1.35
2019-04-16T05:49:57.885Z,1.20
2019-04-16T05:55:02.219Z,1.30
2019-04-16T06:00:10.446Z,1.30
2019-04-16T06:05:14.348Z,1.10
2019-04-16T06:10:19.228Z,1.10
2019-04-16T06:15:30.646Z,1.30
2019-04-16T06:20:35.748Z,1.50
2019-04-16T06:25:49.801Z,1.30
2019-04-16T06:30:57.421Z,1.52
2019-04-16T06:36:02.540Z,1.30
2019-04-16T06:41:19.447Z,1.30
2019-04-16T06:46:42.541Z,1.35
2019-04-16T06:51:47.661Z,1.30
2019-04-16T06:57:12.234Z,1.30
2019-04-16T07:02:32.809Z,1.07
2019-04-16T07:07:54.087Z,1.20
2019-04-16T07:12:57.546Z,1.70
2019-04-16T07:18:02.581Z,1.70
2019-04-16T07:23:06.190Z,2.00
2019-04-16T07:28:28.042Z,2.37
2019-04-16T07:33:33.112Z,2.30
2019-04-16T07:38:40.925Z,2.40
2019-04-16T07:44:04.516Z,2.42
2019-04-16T07:49:13.887Z,2.25
2019-04-16T07:54:37.032Z,2.47
2019-04-16T07:59:40.488Z,2.47
2019-04-16T08:04:43.949Z,3.00
2019-04-16T08:09:47.408Z,2.92
2019-04-16T08:14:50.872Z,2.98
2019-04-16T08:19:55.570Z,2.85
2019-04-16T08:25:03.442Z,2.87
2019-04-16T08:30:09.373Z,2.95
2019-04-16T08:35:12.972Z,4.00
2019-04-16T08:40:16.429Z,2.87
2019-04-16T08:45:20.806Z,2.83
2019-04-16T08:50:26.132Z,4.90
2019-04-16T08:55:29.605Z,5.27
2019-04-16T09:00:33.902Z,5.95
2019-04-16T09:05:41.299Z,7.42
2019-04-16T09:10:44.584Z,6.17
2019-04-16T09:15:47.725Z,6.33
2019-04-16T09:20:51.188Z,7.13
2019-04-16T09:26:13.686Z,6.50
2019-04-16T09:31:22.156Z,6.47
2019-04-16T09:36:28.158Z,6.50
2019-04-16T09:41:35.900Z,6.60
2019-04-16T09:46:51.083Z,5.75
2019-04-16T09:51:44.568Z,6.25
2019-04-16T09:56:48.032Z,5.73
2019-04-16T10:01:53.129Z,5.40
2019-04-16T10:06:56.617Z,5.42
2019-04-16T10:12:00.069Z,5.80
2019-04-16T10:17:05.165Z,4.60
2019-04-16T10:22:08.632Z,5.13
2019-04-16T10:27:13.805Z,5.37
2019-04-16T10:32:18.393Z,5.92
2019-04-16T10:37:22.218Z,6.53
2019-04-16T10:42:43.558Z,5.63
2019-04-16T10:47:48.675Z,5.35
2019-04-16T10:53:09.874Z,6.05
2019-04-16T10:58:30.927Z,5.80
2019-04-16T11:03:36.020Z,5.65
2019-04-16T11:08:39.490Z,5.75
2019-04-16T11:13:58.369Z,5.73
2019-04-16T11:18:49.764Z,6.50
2019-04-16T11:23:53.266Z,5.87
2019-04-16T11:28:56.715Z,5.35
2019-04-16T11:34:00.215Z,5.30
2019-04-16T11:39:05.617Z,4.77
2019-04-16T11:44:15.653Z,4.50
2019-04-16T11:49:14.333Z,4.05
2019-04-16T11:54:17.816Z,4.10
2019-04-16T11:59:21.277Z,4.15
2019-04-16T12:04:29.124Z,3.95
2019-04-16T12:09:52.056Z,4.00
2019-04-16T12:15:09.230Z,3.30
2019-04-16T12:20:20.410Z,3.80
2019-04-16T12:25:31.491Z,3.50
2019-04-16T12:30:36.589Z,4.05
2019-04-16T12:35:47.670Z,4.00
2019-04-16T12:40:55.453Z,3.08
2019-04-16T12:46:16.781Z,3.77
2019-04-16T12:51:31.205Z,3.65
2019-04-16T12:56:48.160Z,3.47
2019-04-16T13:02:02.149Z,4.08
2019-04-16T13:07:10.523Z,3.62
2019-04-16T13:12:21.343Z,2.77
2019-04-16T13:17:29.453Z,3.20
2019-04-16T13:22:34.553Z,3.55
2019-04-16T13:27:39.651Z,2.87
2019-04-16T13:32:43.113Z,3.02
2019-04-16T13:37:46.570Z,3.40
2019-04-16T13:42:50.027Z,2.77
2019-04-16T13:47:56.007Z,3.12
2019-04-16T13:53:03.984Z,2.65
2019-04-16T13:58:14.807Z,3.73
2019-04-16T14:03:20.874Z,2.98
2019-04-16T14:08:25.116Z,3.10
2019-04-16T14:13:28.574Z,2.95
2019-04-16T14:18:32.702Z,2.83
2019-04-16T14:23:36.873Z,3.02
2019-04-16T14:28:52.040Z,3.25
2019-04-16T14:33:49.581Z,3.00
2019-04-16T14:39:07.820Z,2.90
2019-04-16T14:44:12.853Z,2.50
2019-04-16T14:49:18.324Z,2.72
2019-04-16T14:54:28.811Z,2.50
2019-04-16T14:59:50.268Z,2.50
2019-04-16T15:05:04.304Z,2.97
2019-04-16T15:10:24.943Z,2.17
2019-04-16T15:15:39.166Z,2.33
2019-04-16T15:20:53.190Z,3.37
2019-04-16T15:26:10.204Z,2.10
2019-04-16T15:31:18.007Z,2.55
2019-04-16T15:36:41.290Z,2.57
2019-04-16T15:41:46.388Z,3.08
2019-04-16T15:47:07.489Z,2.10
2019-04-16T15:52:15.282Z,2.70
2019-04-16T15:57:29.331Z,2.30
2019-04-16T16:02:37.356Z,2.70
2019-04-16T16:07:42.454Z,2.27
2019-04-16T16:12:45.918Z,2.70
2019-04-16T16:17:49.779Z,2.30
2019-04-16T16:22:54.619Z,2.60
2019-04-16T16:27:58.461Z,2.10
2019-04-16T16:33:01.938Z,3.10
2019-04-16T16:38:05.980Z,2.37
2019-04-16T16:43:09.459Z,2.85
2019-04-16T16:48:13.382Z,2.17
2019-04-16T16:53:18.505Z,2.30
2019-04-16T16:58:40.227Z,2.45
2019-04-16T17:03:52.687Z,2.40
2019-04-16T17:08:56.370Z,2.33
2019-04-16T17:14:02.263Z,2.22
2019-04-16T17:19:05.043Z,1.90
2019-04-16T17:24:08.523Z,2.20
2019-04-16T17:29:12.004Z,2.65
2019-04-16T17:34:15.485Z,2.87
2019-04-16T17:39:20.596Z,1.87
2019-04-16T17:44:34.753Z,2.25
2019-04-16T17:49:48.953Z,2.25
2019-04-16T17:55:06.260Z,2.00
2019-04-16T18:00:28.257Z,2.12
2019-04-16T18:05:36.306Z,2.17
2019-04-16T18:10:45.369Z,1.90
2019-04-16T18:15:56.433Z,2.65
2019-04-16T18:21:17.869Z,1.90
2019-04-16T18:26:28.406Z,1.90
2019-04-16T18:31:33.506Z,2.27
2019-04-16T18:36:47.561Z,2.15
2019-04-16T18:41:58.645Z,2.10
2019-04-16T18:47:06.543Z,2.08
2019-04-16T18:52:10.020Z,1.82
2019-04-16T18:57:13.541Z,1.52
2019-04-16T19:02:17.004Z,2.05
2019-04-16T19:07:20.735Z,1.72
2019-04-16T19:12:24.199Z,1.90
2019-04-16T19:17:27.657Z,1.50
2019-04-16T19:22:31.118Z,1.90
2019-04-16T19:27:34.685Z,2.27
2019-04-16T19:32:38.154Z,2.00
2019-04-16T19:37:41.605Z,1.87
2019-04-16T19:42:45.066Z,1.70
2019-04-16T19:47:48.524Z,1.80
2019-04-16T19:52:51.989Z,1.80
2019-04-16T19:57:56.984Z,1.62
2019-04-16T20:03:00.636Z,1.77
2019-04-16T20:08:04.097Z,1.60
2019-04-16T20:13:07.558Z,1.25
2019-04-16T20:18:11.018Z,1.80
2019-04-16T20:23:14.476Z,2.12
2019-04-16T20:28:17.935Z,1.82
2019-04-16T20:33:21.392Z,2.47
2019-04-16T20:38:28.984Z,1.70
2019-04-16T20:43:30.042Z,2.08
2019-04-16T20:48:33.507Z,1.52
2019-04-16T20:53:38.011Z,1.75
2019-04-16T20:58:42.229Z,1.57
2019-04-16T21:03:47.345Z,1.80
2019-04-16T21:08:50.897Z,1.40
2019-04-16T21:13:56.365Z,1.82
2019-04-16T21:18:59.919Z,1.80
2019-04-16T21:24:06.867Z,1.62
2019-04-16T21:29:10.199Z,1.62
2019-04-16T21:34:18.451Z,1.80
2019-04-16T21:39:35.695Z,1.50
2019-04-16T21:44:41.343Z,1.47
2019-04-16T21:49:45.786Z,1.90
2019-04-16T21:54:49.400Z,2.12
2019-04-16T21:59:56.666Z,1.70
2019-04-16T22:04:58.252Z,1.57
2019-04-16T22:10:02.151Z,1.32
2019-04-16T22:15:07.388Z,1.67
2019-04-16T22:20:10.785Z,1.15
2019-04-16T22:25:14.251Z,1.43
2019-04-16T22:30:19.396Z,1.53
2019-04-16T22:35:22.890Z,1.67
2019-04-16T22:40:30.773Z,1.60
2019-04-16T22:45:44.569Z,1.20
2019-04-16T22:50:48.031Z,1.80
2019-04-16T22:55:56.484Z,1.50
2019-04-16T23:01:01.439Z,1.50
2019-04-16T23:06:06.387Z,1.60
2019-04-16T23:11:10.024Z,1.40
2019-04-16T23:16:13.486Z,1.52
2019-04-16T23:21:16.942Z,1.67
2019-04-16T23:26:20.397Z,1.10
2019-04-16T23:31:23.852Z,1.50
2019-04-16T23:36:27.308Z,1.30
2019-04-16T23:41:30.770Z,1.35
2019-04-16T23:46:47.517Z,1.20
2019-04-16T23:52:08.522Z,1.00
2019-04-16T23:57:16.508Z,1.05
